sensor_id;sensor_type;location;lat;lon;timestamp;pressure;altitude;pressure_sealevel;temperature;humidity
8697;BME280;4385;48.848;8.924;2023-04-02T00:05:21;96565.00;;;18.62;100.00
8697;BME280;4385;48.848;8.924;2023-04-02T00:07:52;96570.09;;;18.62;100.00
8697;BME280;4385;48.848;8.924;2023-04-02T00:13:05;96576.31;;;18.54;100.00
8697;BME280;4385;48.848;8.924;2023-04-02T00:15:32;96574.66;;;18.53;100.00
8697;BME280;4385;48.848;8.924;2023-04-02T00:17:58;96583.19;;;18.52;100.00
8697;BME280;4385;48.848;8.924;2023-04-02T00:20:25;96573.88;;;18.51;100.00
8697;BME280;4385;48.848;8.924;2023-04-02T00:22:52;96579.09;;;18.48;100.00
8697;BME280;4385;48.848;8.924;2023-04-02T00:25:18;96576.66;;;18.45;100.00
8697;BME280;4385;48.848;8.924;2023-04-02T00:27:44;96585.16;;;18.46;100.00
8697;BME280;4385;48.848;8.924;2023-04-02T00:30:11;96589.41;;;18.45;100.00
8697;BME280;4385;48.848;8.924;2023-04-02T00:32:38;96591.97;;;18.45;100.00
8697;BME280;4385;48.848;8.924;2023-04-02T00:35:10;96594.50;;;18.45;100.00
8697;BME280;4385;48.848;8.924;2023-04-02T00:37:36;96599.63;;;18.45;100.00
8697;BME280;4385;48.848;8.924;2023-04-02T00:40:19;96592.88;;;18.44;100.00
8697;BME280;4385;48.848;8.924;2023-04-02T00:42:48;96599.63;;;18.45;100.00
8697;BME280;4385;48.848;8.924;2023-04-02T00:45:21;96605.56;;;18.46;100.00
8697;BME280;4385;48.848;8.924;2023-04-02T00:47:48;96604.72;;;18.45;100.00
8697;BME280;4385;48.848;8.924;2023-04-02T00:52:40;96604.72;;;18.45;100.00
8697;BME280;4385;48.848;8.924;2023-04-02T00:55:13;96601.31;;;18.44;100.00
8697;BME280;4385;48.848;8.924;2023-04-02T00:57:44;96600.56;;;18.42;100.00
8697;BME280;4385;48.848;8.924;2023-04-02T01:05:42;96609.13;;;18.40;100.00
8697;BME280;4385;48.848;8.924;2023-04-02T01:11:18;96612.59;;;18.39;100.00
8697;BME280;4385;48.848;8.924;2023-04-02T01:14:06;96610.94;;;18.38;100.00
8697;BME280;4385;48.848;8.924;2023-04-02T01:22:30;96628.09;;;18.32;100.00
8697;BME280;4385;48.848;8.924;2023-04-02T01:24:59;96628.22;;;18.29;100.00
8697;BME280;4385;48.848;8.924;2023-04-02T01:27:37;96621.47;;;18.28;100.00
8697;BME280;4385;48.848;8.924;2023-04-02T01:30:05;96627.44;;;18.27;100.00
8697;BME280;4385;48.848;8.924;2023-04-02T01:32:32;96628.38;;;18.25;100.00
8697;BME280;4385;48.848;8.924;2023-04-02T01:34:58;96628.38;;;18.25;100.00
8697;BME280;4385;48.848;8.924;2023-04-02T01:37:34;96619.94;;;18.23;100.00
8697;BME280;4385;48.848;8.924;2023-04-02T01:45:57;96629.34;;;18.22;100.00
8697;BME280;4385;48.848;8.924;2023-04-02T01:48:27;96637.84;;;18.21;100.00
8697;BME280;4385;48.848;8.924;2023-04-02T01:50:55;96643.06;;;18.18;100.00
8697;BME280;4385;48.848;8.924;2023-04-02T01:53:23;96644.84;;;18.16;100.00
8697;BME280;4385;48.848;8.924;2023-04-02T01:55:53;96642.28;;;18.16;100.00
8697;BME280;4385;48.848;8.924;2023-04-02T01:58:22;96647.41;;;18.16;100.00
8697;BME280;4385;48.848;8.924;2023-04-02T02:00:54;96644.84;;;18.16;100.00
8697;BME280;4385;48.848;8.924;2023-04-02T02:03:20;96646.59;;;18.14;100.00
8697;BME280;4385;48.848;8.924;2023-04-02T02:05:45;96650.03;;;18.13;100.00
8697;BME280;4385;48.848;8.924;2023-04-02T02:08:29;96645.75;;;18.13;100.00
8697;BME280;4385;48.848;8.924;2023-04-02T02:10:55;96650.03;;;18.13;100.00
8697;BME280;4385;48.848;8.924;2023-04-02T02:13:21;96644.19;;;18.09;100.00
8697;BME280;4385;48.848;8.924;2023-04-02T02:15:47;96655.22;;;18.10;100.00
8697;BME280;4385;48.848;8.924;2023-04-02T02:18:15;96653.53;;;18.08;100.00
8697;BME280;4385;48.848;8.924;2023-04-02T02:20:43;96658.75;;;18.05;100.00
8697;BME280;4385;48.848;8.924;2023-04-02T02:23:10;96664.72;;;18.04;100.00
8697;BME280;4385;48.848;8.924;2023-04-02T02:25:36;96663.06;;;18.03;100.00
8697;BME280;4385;48.848;8.924;2023-04-02T02:28:29;96667.34;;;18.03;100.00
8697;BME280;4385;48.848;8.924;2023-04-02T02:31:05;96667.28;;;18.04;100.00
8697;BME280;4385;48.848;8.924;2023-04-02T02:33:36;96665.63;;;18.03;100.00
8697;BME280;4385;48.848;8.924;2023-04-02T02:36:15;96666.44;;;18.04;100.00
8697;BME280;4385;48.848;8.924;2023-04-02T02:39:01;96662.19;;;18.04;100.00
8697;BME280;4385;48.848;8.924;2023-04-02T02:41:46;96669.00;;;18.04;100.00
8697;BME280;4385;48.848;8.924;2023-04-02T02:44:21;96667.28;;;18.04;100.00
8697;BME280;4385;48.848;8.924;2023-04-02T02:46:53;96674.03;;;18.05;100.00
8697;BME280;4385;48.848;8.924;2023-04-02T02:49:25;96676.63;;;18.04;100.00
8697;BME280;4385;48.848;8.924;2023-04-02T02:51:59;96680.97;;;18.02;100.00
8697;BME280;4385;48.848;8.924;2023-04-02T02:54:26;96675.03;;;18.01;100.00
8697;BME280;4385;48.848;8.924;2023-04-02T02:56:57;96677.56;;;18.01;100.00
8697;BME280;4385;48.848;8.924;2023-04-02T02:59:26;96681.88;;;17.99;100.00
8697;BME280;4385;48.848;8.924;2023-04-02T03:01:53;96682.84;;;17.97;100.00
8697;BME280;4385;48.848;8.924;2023-04-02T03:04:21;96682.88;;;17.95;100.00
8697;BME280;4385;48.848;8.924;2023-04-02T03:06:55;96681.22;;;17.94;100.00
8697;BME280;4385;48.848;8.924;2023-04-02T03:18:14;96698.28;;;17.92;100.00
8697;BME280;4385;48.848;8.924;2023-04-02T03:20:52;96697.44;;;17.91;100.00
8697;BME280;4385;48.848;8.924;2023-04-02T03:23:31;96697.47;;;17.90;100.00
8697;BME280;4385;48.848;8.924;2023-04-02T03:28:50;96702.56;;;17.90;100.00
8697;BME280;4385;48.848;8.924;2023-04-02T03:31:22;96712.78;;;17.90;100.00
8697;BME280;4385;48.848;8.924;2023-04-02T03:33:55;96713.66;;;17.89;100.00
8697;BME280;4385;48.848;8.924;2023-04-02T03:36:39;96718.75;;;17.89;100.00
8697;BME280;4385;48.848;8.924;2023-04-02T03:39:16;96722.19;;;17.88;100.00
8697;BME280;4385;48.848;8.924;2023-04-02T03:41:47;96727.31;;;17.88;100.00
8697;BME280;4385;48.848;8.924;2023-04-02T03:44:25;96730.72;;;17.87;100.00
8697;BME280;4385;48.848;8.924;2023-04-02T03:46:54;96735.00;;;17.86;100.00
8697;BME280;4385;48.848;8.924;2023-04-02T03:49:30;96740.13;;;17.85;100.00
8697;BME280;4385;48.848;8.924;2023-04-02T03:52:08;96735.91;;;17.83;100.00
8697;BME280;4385;48.848;8.924;2023-04-02T03:54:34;96745.25;;;17.85;100.00
8697;BME280;4385;48.848;8.924;2023-04-02T03:57:00;96741.91;;;17.82;100.00
8697;BME280;4385;48.848;8.924;2023-04-02T03:59:36;96741.91;;;17.82;100.00
8697;BME280;4385;48.848;8.924;2023-04-02T04:05:00;96746.19;;;17.80;100.00
8697;BME280;4385;48.848;8.924;2023-04-02T04:07:30;96748.75;;;17.80;100.00
8697;BME280;4385;48.848;8.924;2023-04-02T04:09:58;96755.56;;;17.80;100.00
8697;BME280;4385;48.848;8.924;2023-04-02T04:12:33;96757.22;;;17.81;100.00
8697;BME280;4385;48.848;8.924;2023-04-02T04:15:18;96759.72;;;17.82;100.00
8697;BME280;4385;48.848;8.924;2023-04-02T04:20:23;96765.81;;;17.78;100.00
8697;BME280;4385;48.848;8.924;2023-04-02T04:22:50;96765.03;;;17.76;100.00
8697;BME280;4385;48.848;8.924;2023-04-02T04:25:25;96770.16;;;17.75;100.00
8697;BME280;4385;48.848;8.924;2023-04-02T04:28:15;96771.97;;;17.71;100.00
8697;BME280;4385;48.848;8.924;2023-04-02T04:30:55;96771.97;;;17.71;100.00
8697;BME280;4385;48.848;8.924;2023-04-02T04:33:30;96765.31;;;17.67;100.00
8697;BME280;4385;48.848;8.924;2023-04-02T04:35:59;96773.75;;;17.69;100.00
8697;BME280;4385;48.848;8.924;2023-04-02T04:38:31;96769.56;;;17.66;100.00
8697;BME280;4385;48.848;8.924;2023-04-02T04:41:04;96777.19;;;17.66;100.00
8697;BME280;4385;48.848;8.924;2023-04-02T04:43:43;96778.94;;;17.66;100.00
8697;BME280;4385;48.848;8.924;2023-04-02T04:46:20;96788.22;;;17.67;100.00
8697;BME280;4385;48.848;8.924;2023-04-02T04:48:55;96794.22;;;17.66;100.00
8697;BME280;4385;48.848;8.924;2023-04-02T04:51:38;96795.91;;;17.65;100.00
8697;BME280;4385;48.848;8.924;2023-04-02T04:54:09;96801.00;;;17.65;100.00
8697;BME280;4385;48.848;8.924;2023-04-02T04:56:36;96802.72;;;17.65;100.00
8697;BME280;4385;48.848;8.924;2023-04-02T04:59:12;96807.00;;;17.64;100.00
8697;BME280;4385;48.848;8.924;2023-04-02T05:01:45;96803.66;;;17.62;100.00
8697;BME280;4385;48.848;8.924;2023-04-02T05:04:18;96811.34;;;17.61;100.00
8697;BME280;4385;48.848;8.924;2023-04-02T05:06:53;96815.59;;;17.60;100.00
8697;BME280;4385;48.848;8.924;2023-04-02T05:09:29;96821.53;;;17.61;100.00
8697;BME280;4385;48.848;8.924;2023-04-02T05:12:34;96818.19;;;17.58;100.00
8697;BME280;4385;48.848;8.924;2023-04-02T05:15:21;96826.72;;;17.57;100.00
8697;BME280;4385;48.848;8.924;2023-04-02T05:18:15;96822.50;;;17.56;100.00
8697;BME280;4385;48.848;8.924;2023-04-02T05:23:27;96831.91;;;17.54;100.00
8697;BME280;4385;48.848;8.924;2023-04-02T05:26:13;96830.25;;;17.53;100.00
8697;BME280;4385;48.848;8.924;2023-04-02T05:28:46;96833.66;;;17.52;100.00
8697;BME280;4385;48.848;8.924;2023-04-02T05:31:22;96842.13;;;17.53;100.00
8697;BME280;4385;48.848;8.924;2023-04-02T05:33:50;96845.53;;;17.53;100.00
8697;BME280;4385;48.848;8.924;2023-04-02T05:36:24;96844.69;;;17.53;100.00
8697;BME280;4385;48.848;8.924;2023-04-02T05:38:51;96846.38;;;17.52;100.00
8697;BME280;4385;48.848;8.924;2023-04-02T05:44:09;96847.28;;;17.51;100.00
8697;BME280;4385;48.848;8.924;2023-04-02T05:46:46;96850.72;;;17.50;100.00
8697;BME280;4385;48.848;8.924;2023-04-02T05:49:22;96862.56;;;17.51;100.00
8697;BME280;4385;48.848;8.924;2023-04-02T05:51:51;96864.31;;;17.49;100.00
8697;BME280;4385;48.848;8.924;2023-04-02T05:54:36;96861.75;;;17.49;100.00
8697;BME280;4385;48.848;8.924;2023-04-02T05:57:12;96866.09;;;17.47;100.00
8697;BME280;4385;48.848;8.924;2023-04-02T05:59:46;96863.56;;;17.45;100.00
8697;BME280;4385;48.848;8.924;2023-04-02T06:02:21;96862.72;;;17.45;100.00
8697;BME280;4385;48.848;8.924;2023-04-02T06:07:22;96871.84;;;17.52;100.00
8697;BME280;4385;48.848;8.924;2023-04-02T06:09:52;96875.94;;;17.60;100.00
8697;BME280;4385;48.848;8.924;2023-04-02T06:12:38;96874.06;;;17.65;100.00
8697;BME280;4385;48.848;8.924;2023-04-02T06:15:12;96878.06;;;17.74;100.00
8697;BME280;4385;48.848;8.924;2023-04-02T06:17:50;96884.66;;;17.81;100.00
8697;BME280;4385;48.848;8.924;2023-04-02T06:20:18;96883.53;;;17.90;100.00
8697;BME280;4385;48.848;8.924;2023-04-02T06:22:47;96890.91;;;17.99;100.00
8697;BME280;4385;48.848;8.924;2023-04-02T06:27:48;96898.28;;;18.08;100.00
8697;BME280;4385;48.848;8.924;2023-04-02T06:30:21;96899.91;;;18.13;100.00
8697;BME280;4385;48.848;8.924;2023-04-02T06:32:48;96906.53;;;18.18;100.00
8697;BME280;4385;48.848;8.924;2023-04-02T06:35:14;96914.09;;;18.22;100.00
8697;BME280;4385;48.848;8.924;2023-04-02T06:37:43;96914.84;;;18.25;100.00
8697;BME280;4385;48.848;8.924;2023-04-02T06:40:45;96912.97;;;18.30;100.00
8697;BME280;4385;48.848;8.924;2023-04-02T06:44:03;96921.31;;;18.36;100.00
8697;BME280;4385;48.848;8.924;2023-04-02T06:46:41;96919.56;;;18.38;100.00
8697;BME280;4385;48.848;8.924;2023-04-02T06:49:22;96922.06;;;18.39;100.00
8697;BME280;4385;48.848;8.924;2023-04-02T06:51:51;96927.94;;;18.41;100.00
8697;BME280;4385;48.848;8.924;2023-04-02T06:54:18;96933.88;;;18.42;100.00
8697;BME280;4385;48.848;8.924;2023-04-02T06:56:49;96937.31;;;18.41;100.00
8697;BME280;4385;48.848;8.924;2023-04-02T06:59:16;96943.28;;;18.40;100.00
8697;BME280;4385;48.848;8.924;2023-04-02T07:01:51;96945.88;;;18.38;100.00
8697;BME280;4385;48.848;8.924;2023-04-02T07:04:18;96945.94;;;18.37;100.00
8697;BME280;4385;48.848;8.924;2023-04-02T07:06:44;96957.91;;;18.35;100.00
8697;BME280;4385;48.848;8.924;2023-04-02T07:09:10;96965.56;;;18.35;100.00
8697;BME280;4385;48.848;8.924;2023-04-02T07:11:35;96965.56;;;18.35;100.00
8697;BME280;4385;48.848;8.924;2023-04-02T07:14:01;96968.88;;;18.37;100.00
8697;BME280;4385;48.848;8.924;2023-04-02T07:16:29;96969.69;;;18.39;100.00
8697;BME280;4385;48.848;8.924;2023-04-02T07:18:55;96979.84;;;18.40;100.00
8697;BME280;4385;48.848;8.924;2023-04-02T07:21:23;96986.56;;;18.43;100.00
8697;BME280;4385;48.848;8.924;2023-04-02T07:23:48;96980.59;;;18.44;100.00
8697;BME280;4385;48.848;8.924;2023-04-02T07:26:17;96980.50;;;18.47;100.00
8697;BME280;4385;48.848;8.924;2023-04-02T07:28:43;96987.19;;;18.51;100.00
8697;BME280;4385;48.848;8.924;2023-04-02T07:31:22;96992.19;;;18.54;100.00
8697;BME280;4385;48.848;8.924;2023-04-02T07:33:52;96987.84;;;18.58;100.00
8697;BME280;4385;48.848;8.924;2023-04-02T07:36:20;96991.16;;;18.60;100.00
8697;BME280;4385;48.848;8.924;2023-04-02T07:38:47;96992.84;;;18.61;100.00
8697;BME280;4385;48.848;8.924;2023-04-02T07:41:13;96997.09;;;18.61;100.00
8697;BME280;4385;48.848;8.924;2023-04-02T07:43:39;97006.47;;;18.60;100.00
8697;BME280;4385;48.848;8.924;2023-04-02T07:46:05;97004.75;;;18.61;100.00
8697;BME280;4385;48.848;8.924;2023-04-02T07:48:31;96997.94;;;18.61;100.00
8697;BME280;4385;48.848;8.924;2023-04-02T07:50:57;97011.56;;;18.60;100.00
8697;BME280;4385;48.848;8.924;2023-04-02T07:53:33;97022.63;;;18.61;100.00
8697;BME280;4385;48.848;8.924;2023-04-02T07:56:01;97018.44;;;18.58;100.00
8697;BME280;4385;48.848;8.924;2023-04-02T07:58:27;97037.13;;;18.59;100.00
8697;BME280;4385;48.848;8.924;2023-04-02T08:00:53;97032.97;;;18.56;100.00
8697;BME280;4385;48.848;8.924;2023-04-02T08:03:18;97038.09;;;18.54;100.00
8697;BME280;4385;48.848;8.924;2023-04-02T08:05:49;97039.81;;;18.54;100.00
8697;BME280;4385;48.848;8.924;2023-04-02T08:08:15;97043.22;;;18.54;100.00
8697;BME280;4385;48.848;8.924;2023-04-02T08:10:40;97044.88;;;18.55;100.00
8697;BME280;4385;48.848;8.924;2023-04-02T08:13:05;97048.22;;;18.57;100.00
8697;BME280;4385;48.848;8.924;2023-04-02T08:15:31;97048.97;;;18.61;100.00
8697;BME280;4385;48.848;8.924;2023-04-02T08:17:56;97050.59;;;18.64;100.00
8697;BME280;4385;48.848;8.924;2023-04-02T08:20:21;97062.13;;;18.76;100.00
8697;BME280;4385;48.848;8.924;2023-04-02T08:22:47;97063.75;;;18.80;100.00
8697;BME280;4385;48.848;8.924;2023-04-02T08:25:14;97057.75;;;18.81;100.00
8697;BME280;4385;48.848;8.924;2023-04-02T08:27:39;97061.03;;;18.85;100.00
8697;BME280;4385;48.848;8.924;2023-04-02T08:30:06;97067.81;;;18.86;100.00
8697;BME280;4385;48.848;8.924;2023-04-02T08:32:32;97068.59;;;18.88;100.00
8697;BME280;4385;48.848;8.924;2023-04-02T08:34:57;97082.13;;;18.90;100.00
8697;BME280;4385;48.848;8.924;2023-04-02T08:37:22;97083.78;;;18.92;100.00
8697;BME280;4385;48.848;8.924;2023-04-02T08:39:48;97082.81;;;18.97;100.00
8697;BME280;4385;48.848;8.924;2023-04-02T08:42:41;97083.56;;;19.00;100.00
8697;BME280;4385;48.848;8.924;2023-04-02T08:47:39;97090.97;;;19.10;100.00
8697;BME280;4385;48.848;8.924;2023-04-02T08:50:32;97091.72;;;19.12;100.00
8697;BME280;4385;48.848;8.924;2023-04-02T08:53:09;97099.34;;;19.13;100.00
8697;BME280;4385;48.848;8.924;2023-04-02T08:55:40;97104.44;;;19.13;100.00
8697;BME280;4385;48.848;8.924;2023-04-02T08:58:33;97105.38;;;19.11;100.00
8697;BME280;4385;48.848;8.924;2023-04-02T09:01:02;97117.31;;;19.10;100.00
8697;BME280;4385;48.848;8.924;2023-04-02T09:03:34;97113.03;;;19.11;100.00
8697;BME280;4385;48.848;8.924;2023-04-02T09:06:01;97125.81;;;19.11;100.00
8697;BME280;4385;48.848;8.924;2023-04-02T09:08:30;97125.78;;;19.12;100.00
8697;BME280;4385;48.848;8.924;2023-04-02T09:11:05;97131.78;;;19.11;100.00
8697;BME280;4385;48.848;8.924;2023-04-02T09:13:33;97135.13;;;19.12;100.00
8697;BME280;4385;48.848;8.924;2023-04-02T09:18:31;97133.47;;;19.11;100.00
8697;BME280;4385;48.848;8.924;2023-04-02T09:20:57;97131.78;;;19.11;100.00
8697;BME280;4385;48.848;8.924;2023-04-02T09:23:26;97138.59;;;19.11;100.00
8697;BME280;4385;48.848;8.924;2023-04-02T09:25:52;97137.69;;;19.12;100.00
8697;BME280;4385;48.848;8.924;2023-04-02T09:28:19;97150.47;;;19.12;100.00
8697;BME280;4385;48.848;8.924;2023-04-02T09:33:48;97154.72;;;19.13;100.00
8697;BME280;4385;48.848;8.924;2023-04-02T09:36:27;97150.38;;;19.15;100.00
8697;BME280;4385;48.848;8.924;2023-04-02T09:39:02;97152.97;;;19.13;100.00
8697;BME280;4385;48.848;8.924;2023-04-02T09:41:32;97158.91;;;19.14;100.00
8697;BME280;4385;48.848;8.924;2023-04-02T09:44:12;97167.44;;;19.14;100.00
8697;BME280;4385;48.848;8.924;2023-04-02T09:47:09;97172.50;;;19.16;100.00
8697;BME280;4385;48.848;8.924;2023-04-02T09:49:47;97177.59;;;19.16;100.00
8697;BME280;4385;48.848;8.924;2023-04-02T09:52:25;97185.22;;;19.17;100.00
8697;BME280;4385;48.848;8.924;2023-04-02T09:57:47;97182.72;;;19.16;100.00
8697;BME280;4385;48.848;8.924;2023-04-02T10:02:41;97181.16;;;19.10;100.00
8697;BME280;4385;48.848;8.924;2023-04-02T10:05:25;97183.75;;;19.09;100.00
8697;BME280;4385;48.848;8.924;2023-04-02T10:07:53;97189.72;;;19.07;100.00
8697;BME280;4385;48.848;8.924;2023-04-02T10:13:01;97198.22;;;19.08;100.00
8697;BME280;4385;48.848;8.924;2023-04-02T10:15:32;97194.81;;;19.07;100.00
8697;BME280;4385;48.848;8.924;2023-04-02T10:18:09;97198.22;;;19.08;100.00
8697;BME280;4385;48.848;8.924;2023-04-02T10:20:38;97202.50;;;19.07;100.00
8697;BME280;4385;48.848;8.924;2023-04-02T10:23:05;97206.75;;;19.09;100.00
8697;BME280;4385;48.848;8.924;2023-04-02T10:25:40;97207.59;;;19.09;100.00
8697;BME280;4385;48.848;8.924;2023-04-02T10:28:33;97208.34;;;19.13;100.00
8697;BME280;4385;48.848;8.924;2023-04-02T10:31:12;97209.13;;;19.15;100.00
8697;BME280;4385;48.848;8.924;2023-04-02T10:33:44;97208.25;;;19.16;100.00
8697;BME280;4385;48.848;8.924;2023-04-02T10:39:06;97209.91;;;19.17;100.00
8697;BME280;4385;48.848;8.924;2023-04-02T10:41:52;97218.38;;;19.19;100.00
8697;BME280;4385;48.848;8.924;2023-04-02T10:47:41;97220.84;;;19.22;100.00
8697;BME280;4385;48.848;8.924;2023-04-02T10:53:06;97225.19;;;19.18;100.00
8697;BME280;4385;48.848;8.924;2023-04-02T10:55:36;97226.91;;;19.18;100.00
8697;BME280;4385;48.848;8.924;2023-04-02T10:58:16;97226.91;;;19.18;100.00
8697;BME280;4385;48.848;8.924;2023-04-02T11:00:45;97238.06;;;19.15;100.00
8697;BME280;4385;48.848;8.924;2023-04-02T11:03:41;97239.81;;;19.13;100.00
8697;BME280;4385;48.848;8.924;2023-04-02T11:06:17;97234.69;;;19.13;100.00
8697;BME280;4385;48.848;8.924;2023-04-02T11:08:45;97245.75;;;19.14;100.00
8697;BME280;4385;48.848;8.924;2023-04-02T11:11:20;97245.75;;;19.14;100.00
8697;BME280;4385;48.848;8.924;2023-04-02T11:16:22;97245.66;;;19.17;100.00
8697;BME280;4385;48.848;8.924;2023-04-02T11:27:28;97255.78;;;19.20;100.00
8697;BME280;4385;48.848;8.924;2023-04-02T11:30:20;97254.91;;;19.21;100.00
8697;BME280;4385;48.848;8.924;2023-04-02T11:32:47;97259.97;;;19.23;100.00
8697;BME280;4385;48.848;8.924;2023-04-02T11:35:37;97265.94;;;19.23;100.00
8697;BME280;4385;48.848;8.924;2023-04-02T11:40:49;97272.69;;;19.24;100.00
8697;BME280;4385;48.848;8.924;2023-04-02T11:48:40;97276.59;;;19.38;100.00
8697;BME280;4385;48.848;8.924;2023-04-02T11:53:47;97272.28;;;19.38;100.00
8697;BME280;4385;48.848;8.924;2023-04-02T11:56:38;97282.47;;;19.40;100.00
8697;BME280;4385;48.848;8.924;2023-04-02T11:59:20;97285.88;;;19.40;100.00
8697;BME280;4385;48.848;8.924;2023-04-02T12:02:15;97284.25;;;19.38;100.00
8697;BME280;4385;48.848;8.924;2023-04-02T12:04:50;97291.88;;;19.39;100.00
8697;BME280;4385;48.848;8.924;2023-04-02T12:09:54;97293.63;;;19.37;100.00
8697;BME280;4385;48.848;8.924;2023-04-02T12:12:26;97294.53;;;19.36;100.00
8697;BME280;4385;48.848;8.924;2023-04-02T12:14:56;97291.13;;;19.36;100.00
8697;BME280;4385;48.848;8.924;2023-04-02T12:20:03;97297.06;;;19.36;100.00
8697;BME280;4385;48.848;8.924;2023-04-02T12:22:50;97301.34;;;19.36;100.00
8697;BME280;4385;48.848;8.924;2023-04-02T12:25:24;97302.97;;;19.38;100.00
8697;BME280;4385;48.848;8.924;2023-04-02T12:28:15;97301.25;;;19.39;100.00
8697;BME280;4385;48.848;8.924;2023-04-02T12:30:46;97312.31;;;19.39;100.00
8697;BME280;4385;48.848;8.924;2023-04-02T12:35:42;97313.13;;;19.40;100.00
8697;BME280;4385;48.848;8.924;2023-04-02T12:38:26;97316.50;;;19.42;100.00
8697;BME280;4385;48.848;8.924;2023-04-02T12:43:27;97320.66;;;19.44;100.00
8697;BME280;4385;48.848;8.924;2023-04-02T12:45:56;97324.06;;;19.45;100.00
8697;BME280;4385;48.848;8.924;2023-04-02T12:48:22;97324.97;;;19.44;100.00
8697;BME280;4385;48.848;8.924;2023-04-02T12:50:48;97326.63;;;19.45;100.00
8697;BME280;4385;48.848;8.924;2023-04-02T12:53:26;97330.88;;;19.44;100.00
8697;BME280;4385;48.848;8.924;2023-04-02T12:55:53;97335.19;;;19.44;100.00
8697;BME280;4385;48.848;8.924;2023-04-02T12:58:35;97341.16;;;19.43;100.00
8697;BME280;4385;48.848;8.924;2023-04-02T13:01:15;97336.09;;;19.41;100.00
8697;BME280;4385;48.848;8.924;2023-04-02T13:03:42;97334.41;;;19.40;100.00
8697;BME280;4385;48.848;8.924;2023-04-02T13:06:20;97340.47;;;19.38;100.00
8697;BME280;4385;48.848;8.924;2023-04-02T13:08:46;97332.00;;;19.36;100.00
8697;BME280;4385;48.848;8.924;2023-04-02T13:11:11;97341.38;;;19.35;100.00
8697;BME280;4385;48.848;8.924;2023-04-02T13:13:38;97346.53;;;19.34;100.00
8697;BME280;4385;48.848;8.924;2023-04-02T13:18:34;97352.47;;;19.34;100.00
8697;BME280;4385;48.848;8.924;2023-04-02T13:21:02;97358.47;;;19.33;100.00
8697;BME280;4385;48.848;8.924;2023-04-02T13:25:53;97359.22;;;19.37;100.00
8697;BME280;4385;48.848;8.924;2023-04-02T13:28:19;97365.16;;;19.37;100.00
8697;BME280;4385;48.848;8.924;2023-04-02T13:30:46;97369.34;;;19.40;100.00
8697;BME280;4385;48.848;8.924;2023-04-02T13:33:12;97375.25;;;19.42;100.00
8697;BME280;4385;48.848;8.924;2023-04-02T13:35:38;97374.38;;;19.43;100.00
8697;BME280;4385;48.848;8.924;2023-04-02T13:38:03;97376.06;;;19.44;100.00
8697;BME280;4385;48.848;8.924;2023-04-02T13:40:31;97382.00;;;19.44;100.00
8697;BME280;4385;48.848;8.924;2023-04-02T13:42:57;97381.13;;;19.46;100.00
8697;BME280;4385;48.848;8.924;2023-04-02T13:45:40;97381.19;;;19.44;100.00
8697;BME280;4385;48.848;8.924;2023-04-02T13:48:12;97379.53;;;19.41;100.00
8697;BME280;4385;48.848;8.924;2023-04-02T13:50:38;97392.31;;;19.41;100.00
8697;BME280;4385;48.848;8.924;2023-04-02T13:53:06;97392.34;;;19.40;100.00
8697;BME280;4385;48.848;8.924;2023-04-02T13:55:36;97399.22;;;19.38;100.00
8697;BME280;4385;48.848;8.924;2023-04-02T13:58:03;97403.53;;;19.36;100.00
8697;BME280;4385;48.848;8.924;2023-04-02T14:00:29;97411.28;;;19.33;100.00
8697;BME280;4385;48.848;8.924;2023-04-02T14:03:01;97413.88;;;19.31;100.00
8697;BME280;4385;48.848;8.924;2023-04-02T14:05:43;97416.47;;;19.29;100.00
8697;BME280;4385;48.848;8.924;2023-04-02T14:17:05;97431.88;;;19.26;100.00
8697;BME280;4385;48.848;8.924;2023-04-02T14:25:05;97438.69;;;19.26;100.00
8697;BME280;4385;48.848;8.924;2023-04-02T14:27:51;97443.81;;;19.26;100.00
8697;BME280;4385;48.848;8.924;2023-04-02T14:30:26;97454.88;;;19.26;100.00
8697;BME280;4385;48.848;8.924;2023-04-02T14:35:43;97470.22;;;19.26;100.00
8697;BME280;4385;48.848;8.924;2023-04-02T14:38:29;97461.66;;;19.27;100.00
8697;BME280;4385;48.848;8.924;2023-04-02T14:40:58;97464.16;;;19.29;100.00
8697;BME280;4385;48.848;8.924;2023-04-02T14:46:11;97470.09;;;19.31;100.00
8697;BME280;4385;48.848;8.924;2023-04-02T14:51:23;97466.69;;;19.30;100.00
8697;BME280;4385;48.848;8.924;2023-04-02T14:54:00;97465.91;;;19.28;100.00
8697;BME280;4385;48.848;8.924;2023-04-02T14:56:30;97471.09;;;19.25;100.00
8697;BME280;4385;48.848;8.924;2023-04-02T14:59:13;97471.94;;;19.24;100.00
8697;BME280;4385;48.848;8.924;2023-04-02T15:01:43;97483.13;;;19.20;100.00
8697;BME280;4385;48.848;8.924;2023-04-02T15:04:22;97480.66;;;19.17;100.00
8697;BME280;4385;48.848;8.924;2023-04-02T15:06:52;97479.00;;;19.16;100.00
8697;BME280;4385;48.848;8.924;2023-04-02T15:09:37;97487.50;;;19.15;100.00
8697;BME280;4385;48.848;8.924;2023-04-02T15:12:09;97478.22;;;19.12;100.00
8697;BME280;4385;48.848;8.924;2023-04-02T15:14:44;97489.22;;;19.16;100.00
8697;BME280;4385;48.848;8.924;2023-04-02T15:17:12;97490.03;;;19.16;100.00
8697;BME280;4385;48.848;8.924;2023-04-02T15:19:38;97491.72;;;19.17;100.00
8697;BME280;4385;48.848;8.924;2023-04-02T15:38:18;97514.59;;;19.22;100.00
8697;BME280;4385;48.848;8.924;2023-04-02T15:43:28;97527.44;;;19.19;100.00
8697;BME280;4385;48.848;8.924;2023-04-02T15:51:43;97538.53;;;19.18;100.00
8697;BME280;4385;48.848;8.924;2023-04-02T16:05:25;97557.22;;;19.20;100.00
8697;BME280;4385;48.848;8.924;2023-04-02T16:08:15;97554.66;;;19.20;100.00
8697;BME280;4385;48.848;8.924;2023-04-02T16:10:45;97560.59;;;19.22;100.00
8697;BME280;4385;48.848;8.924;2023-04-02T16:13:17;97567.34;;;19.23;100.00
8697;BME280;4385;48.848;8.924;2023-04-02T16:16:24;97569.03;;;19.24;100.00
8697;BME280;4385;48.848;8.924;2023-04-02T16:18:59;97577.50;;;19.26;100.00
8697;BME280;4385;48.848;8.924;2023-04-02T16:21:30;97581.75;;;19.26;100.00
8697;BME280;4385;48.848;8.924;2023-04-02T16:23:56;97579.16;;;19.27;100.00
8697;BME280;4385;48.848;8.924;2023-04-02T16:26:57;97580.88;;;19.28;100.00
8697;BME280;4385;48.848;8.924;2023-04-02T16:29:32;97582.63;;;19.26;100.00
8697;BME280;4385;48.848;8.924;2023-04-02T16:32:19;97591.13;;;19.27;100.00
8697;BME280;4385;48.848;8.924;2023-04-02T16:37:57;97603.94;;;19.25;100.00
8697;BME280;4385;48.848;8.924;2023-04-02T16:40:43;97604.78;;;19.24;100.00